createdAt,value
2023-05-22T00:01:45.528Z,50.50
2023-05-22T00:04:13.460Z,52.70
2023-05-22T00:06:42.636Z,54.90
2023-05-22T00:09:10.107Z,56.10
2023-05-22T00:11:36.878Z,54.60
2023-05-22T00:14:03.611Z,57.70
2023-05-22T00:16:30.568Z,57.70
2023-05-22T00:18:57.724Z,61.90
2023-05-22T00:21:24.933Z,66.70
2023-05-22T00:23:51.860Z,74.30
2023-05-22T00:31:13.747Z,70.20
2023-05-22T00:33:40.429Z,80.60
2023-05-22T00:36:07.637Z,83.90
2023-05-22T00:38:36.528Z,87.00
2023-05-22T00:41:04.186Z,90.00
2023-05-22T00:43:31.333Z,86.20
2023-05-22T00:45:58.488Z,85.40
2023-05-22T00:48:25.645Z,90.60
2023-05-22T00:50:53.871Z,87.40
2023-05-22T00:53:21.358Z,92.60
2023-05-22T00:55:48.207Z,91.90
2023-05-22T00:58:18.032Z,89.80
2023-05-22T01:00:45.386Z,94.70
2023-05-22T01:03:12.309Z,92.50
2023-05-22T01:05:39.850Z,90.80
2023-05-22T01:08:07.809Z,92.90
2023-05-22T01:10:35.563Z,93.80
2023-05-22T01:13:43.690Z,95.40
2023-05-22T01:16:29.914Z,96.60
2023-05-22T01:19:50.565Z,99.90
2023-05-22T01:22:36.073Z,99.90
2023-05-22T01:25:31.834Z,99.90
2023-05-22T01:28:08.707Z,99.90
2023-05-22T01:30:56.380Z,97.70
2023-05-22T01:33:26.128Z,99.90
2023-05-22T01:35:56.410Z,97.30
2023-05-22T01:38:23.172Z,97.80
2023-05-22T01:40:49.976Z,97.90
2023-05-22T01:43:16.938Z,99.30
2023-05-22T01:45:43.908Z,98.90
2023-05-22T01:48:12.454Z,98.60
2023-05-22T01:50:40.163Z,98.70
2023-05-22T01:53:24.732Z,97.60
2023-05-22T01:56:15.125Z,99.90
2023-05-22T01:58:56.541Z,99.90
2023-05-22T02:01:23.379Z,99.90
2023-05-22T02:03:51.792Z,99.00
2023-05-22T02:06:18.636Z,99.60
2023-05-22T02:08:45.327Z,99.90
2023-05-22T02:11:12.069Z,99.90
2023-05-22T02:13:39.040Z,99.60
2023-05-22T02:16:06.296Z,99.90
2023-05-22T02:18:33.755Z,99.90
2023-05-22T02:21:00.717Z,99.90
2023-05-22T02:23:29.816Z,99.80
2023-05-22T02:25:56.781Z,99.20
2023-05-22T02:28:23.595Z,99.00
2023-05-22T02:30:50.589Z,99.90
2023-05-22T02:33:20.314Z,99.90
2023-05-22T02:35:47.115Z,99.90
2023-05-22T02:38:13.857Z,99.90
2023-05-22T02:40:40.884Z,99.90
2023-05-22T02:43:08.626Z,99.90
2023-05-22T02:45:35.790Z,99.90
2023-05-22T02:48:03.860Z,99.90
2023-05-22T02:50:30.740Z,99.90
2023-05-22T02:52:57.653Z,99.90
2023-05-22T03:44:37.709Z,99.90
2023-05-22T03:47:05.076Z,99.90
2023-05-22T03:49:31.925Z,99.90
2023-05-22T03:51:58.632Z,99.90
2023-05-22T03:54:25.341Z,99.90
2023-05-22T03:56:52.091Z,99.90
2023-05-22T03:59:18.749Z,99.90
2023-05-22T04:01:46.665Z,99.90
2023-05-22T04:04:13.483Z,99.90
2023-05-22T04:06:43.253Z,99.90
2023-05-22T04:09:13.609Z,99.90
2023-05-22T04:11:40.301Z,99.90
2023-05-22T04:14:07.034Z,99.90
2023-05-22T04:16:34.031Z,99.90
2023-05-22T04:19:03.654Z,99.90
2023-05-22T04:21:34.422Z,99.90
2023-05-22T04:24:07.312Z,99.90
2023-05-22T04:26:34.266Z,99.90
2023-05-22T04:29:01.243Z,99.90
2023-05-22T04:31:28.420Z,99.90
2023-05-22T04:33:55.885Z,99.90
2023-05-22T04:36:26.104Z,99.90
2023-05-22T04:38:54.078Z,99.90
2023-05-22T04:41:22.672Z,99.90
2023-05-22T04:43:49.801Z,99.90
2023-05-22T04:46:16.655Z,99.90
2023-05-22T04:48:43.482Z,99.90
2023-05-22T04:51:10.338Z,99.90
2023-05-22T04:53:38.706Z,99.90
2023-05-22T04:56:06.287Z,99.90
2023-05-22T04:58:33.255Z,99.90
2023-05-22T05:01:00.081Z,99.90
2023-05-22T05:03:27.061Z,99.90
2023-05-22T05:05:54.128Z,99.90
2023-05-22T05:08:20.830Z,99.90
2023-05-22T05:10:47.609Z,99.90
2023-05-22T05:13:14.501Z,99.90
2023-05-22T05:15:41.264Z,99.90
2023-05-22T05:37:47.543Z,99.90
2023-05-22T05:40:14.437Z,99.90
2023-05-22T05:42:41.156Z,99.90
2023-05-22T05:45:08.376Z,99.90
2023-05-22T05:47:35.141Z,99.90
2023-05-22T05:50:01.937Z,99.90
2023-05-22T05:52:32.464Z,99.20
2023-05-22T05:55:00.909Z,99.40
2023-05-22T05:57:28.576Z,98.90
2023-05-22T05:59:55.332Z,98.80
2023-05-22T06:02:22.133Z,98.50
2023-05-22T06:04:49.194Z,97.30
2023-05-22T06:07:16.336Z,96.80
2023-05-22T06:09:43.032Z,96.00
2023-05-22T06:12:12.933Z,96.10
2023-05-22T06:14:42.775Z,96.30
2023-05-22T06:17:09.494Z,94.60
2023-05-22T06:19:36.656Z,93.30
2023-05-22T06:22:04.121Z,92.80
2023-05-22T06:24:32.590Z,91.00
2023-05-22T06:26:59.521Z,91.20
2023-05-22T06:29:26.727Z,90.80
2023-05-22T06:31:53.510Z,89.20
2023-05-22T06:34:22.423Z,90.00
2023-05-22T06:36:50.520Z,88.40
2023-05-22T06:39:18.123Z,88.80
2023-05-22T06:41:45.277Z,86.70
2023-05-22T06:44:12.929Z,83.10
2023-05-22T06:46:39.795Z,82.10
2023-05-22T06:49:06.733Z,82.80
2023-05-22T06:51:34.114Z,81.60
2023-05-22T06:54:00.921Z,80.60
2023-05-22T06:56:27.839Z,76.80
2023-05-22T06:58:54.977Z,79.10
2023-05-22T07:01:21.897Z,79.60
2023-05-22T07:03:48.654Z,79.00
2023-05-22T07:06:15.609Z,79.40
2023-05-22T07:08:42.545Z,80.70
2023-05-22T07:11:09.379Z,78.50
2023-05-22T07:13:36.559Z,76.60
2023-05-22T07:16:03.478Z,75.10
2023-05-22T07:18:31.317Z,74.30
2023-05-22T07:20:58.606Z,74.10
2023-05-22T07:23:26.370Z,72.80
2023-05-22T07:25:53.297Z,70.40
2023-05-22T07:28:20.073Z,70.10
2023-05-22T07:30:46.860Z,68.90
2023-05-22T07:33:14.452Z,67.30
2023-05-22T07:35:41.137Z,65.30
2023-05-22T07:38:07.892Z,64.30
2023-05-22T07:40:34.616Z,62.50
2023-05-22T07:43:01.467Z,61.60
2023-05-22T07:45:28.185Z,61.10
2023-05-22T07:47:56.370Z,61.00
2023-05-22T07:50:23.351Z,62.90
2023-05-22T07:52:50.079Z,63.70
2023-05-22T07:55:16.833Z,63.80
2023-05-22T07:57:43.798Z,64.00
2023-05-22T08:00:12.884Z,63.50
2023-05-22T08:02:41.281Z,62.30
2023-05-22T08:05:08.892Z,58.50
2023-05-22T08:07:36.412Z,50.20
2023-05-22T08:10:04.447Z,53.70
2023-05-22T08:12:31.350Z,48.10
2023-05-22T08:14:58.142Z,46.40
2023-05-22T08:17:25.059Z,42.20
2023-05-22T08:19:52.022Z,39.70
2023-05-22T08:22:18.824Z,43.40
2023-05-22T08:24:45.845Z,41.70
2023-05-22T08:27:12.614Z,37.70
2023-05-22T08:29:39.405Z,40.00
2023-05-22T08:32:06.925Z,37.50
2023-05-22T08:34:34.364Z,39.60
2023-05-22T08:37:01.224Z,35.10
2023-05-22T08:39:28.804Z,35.00
2023-05-22T08:41:55.974Z,32.40
2023-05-22T08:44:22.752Z,25.60
2023-05-22T08:46:49.720Z,26.00
2023-05-22T08:49:16.546Z,25.30
2023-05-22T08:51:43.556Z,23.90
2023-05-22T08:54:10.312Z,24.70
2023-05-22T08:56:39.740Z,23.20
2023-05-22T08:59:12.866Z,26.40
2023-05-22T09:01:39.730Z,26.40
2023-05-22T09:04:06.607Z,27.60
2023-05-22T09:06:33.398Z,26.10
2023-05-22T09:09:00.202Z,26.90
2023-05-22T09:11:27.215Z,27.60
2023-05-22T09:13:54.207Z,28.10
2023-05-22T09:16:21.036Z,27.10
2023-05-22T09:18:47.907Z,26.50
2023-05-22T09:21:28.825Z,27.30
2023-05-22T09:24:01.459Z,26.80
2023-05-22T09:26:33.073Z,25.80
2023-05-22T09:29:00.110Z,25.40
2023-05-22T09:31:31.746Z,25.30
2023-05-22T09:33:59.454Z,23.80
2023-05-22T09:36:33.647Z,25.40
2023-05-22T09:39:01.742Z,26.20
2023-05-22T09:41:35.265Z,26.30
2023-05-22T09:44:02.364Z,25.60
2023-05-22T09:46:29.684Z,26.10
2023-05-22T09:48:57.604Z,25.50
2023-05-22T09:51:24.429Z,26.10
2023-05-22T09:53:51.522Z,26.10
2023-05-22T09:56:27.141Z,26.10
2023-05-22T09:59:02.135Z,25.10
2023-05-22T10:01:29.093Z,26.50
2023-05-22T10:03:55.928Z,26.10
2023-05-22T10:06:23.302Z,25.00
2023-05-22T10:08:54.593Z,23.00
2023-05-22T10:11:22.102Z,24.60
2023-05-22T10:13:49.225Z,25.10
2023-05-22T10:16:16.794Z,25.50
2023-05-22T10:18:46.042Z,25.20
2023-05-22T10:21:13.130Z,24.30
2023-05-22T10:23:40.084Z,25.30
2023-05-22T10:26:06.807Z,25.50
2023-05-22T10:28:38.664Z,24.70
2023-05-22T10:31:09.793Z,23.20
2023-05-22T10:33:42.448Z,24.50
2023-05-22T10:36:10.716Z,23.70
2023-05-22T10:38:55.759Z,24.90
2023-05-22T10:41:25.858Z,23.20
2023-05-22T10:43:52.798Z,22.70
2023-05-22T10:46:20.515Z,22.00
2023-05-22T10:48:49.233Z,22.50
2023-05-22T10:51:19.867Z,21.30
2023-05-22T10:53:55.578Z,19.20
2023-05-22T10:56:25.248Z,16.60
2023-05-22T10:59:02.786Z,15.90
2023-05-22T11:01:29.800Z,13.20
2023-05-22T11:04:00.329Z,14.20
2023-05-22T11:06:46.198Z,12.70
2023-05-22T11:09:32.252Z,9.60
2023-05-22T11:12:24.879Z,11.60
2023-05-22T11:14:56.281Z,10.30
2023-05-22T11:17:26.214Z,11.40
2023-05-22T11:20:11.856Z,9.80
2023-05-22T11:22:52.130Z,9.40
2023-05-22T11:25:20.001Z,10.30
2023-05-22T11:27:47.504Z,12.40
2023-05-22T11:30:15.265Z,11.00
2023-05-22T11:32:48.306Z,11.90
2023-05-22T11:35:17.231Z,10.20
2023-05-22T11:37:44.347Z,9.20
2023-05-22T11:40:13.350Z,9.90
2023-05-22T11:42:40.175Z,11.70
2023-05-22T11:45:07.749Z,10.70
2023-05-22T11:47:34.650Z,10.90
2023-05-22T11:50:02.120Z,10.50
2023-05-22T11:52:36.147Z,11.40
2023-05-22T11:55:05.531Z,9.90
2023-05-22T11:57:32.578Z,10.80
2023-05-22T11:59:59.746Z,11.20
2023-05-22T12:02:27.043Z,12.20
2023-05-22T12:04:57.655Z,10.50
2023-05-22T12:07:25.926Z,10.50
2023-05-22T12:09:52.737Z,12.00
2023-05-22T12:12:22.458Z,11.90
2023-05-22T12:14:50.232Z,12.00
2023-05-22T12:17:17.902Z,11.80
2023-05-22T12:19:44.685Z,12.10
2023-05-22T12:22:11.839Z,11.70
2023-05-22T12:24:41.885Z,12.60
2023-05-22T12:27:10.297Z,12.60
2023-05-22T12:29:38.050Z,12.90
2023-05-22T12:32:07.201Z,12.50
2023-05-22T12:34:34.664Z,11.80
2023-05-22T12:37:01.869Z,10.10
2023-05-22T12:39:29.692Z,11.30
2023-05-22T12:41:56.448Z,9.10
2023-05-22T12:44:23.283Z,10.70
2023-05-22T12:46:50.272Z,11.70
2023-05-22T12:49:17.116Z,12.30
2023-05-22T12:51:44.179Z,11.50
2023-05-22T12:54:11.032Z,12.30
2023-05-22T12:56:37.816Z,11.80
2023-05-22T12:59:04.585Z,11.80
2023-05-22T13:01:31.709Z,11.40
2023-05-22T13:03:58.548Z,11.50
2023-05-22T13:06:27.958Z,12.40
2023-05-22T13:08:56.522Z,11.00
2023-05-22T13:11:24.258Z,11.60
2023-05-22T13:13:51.026Z,11.60
2023-05-22T13:16:17.815Z,11.60
2023-05-22T13:18:44.921Z,10.80
2023-05-22T13:21:13.478Z,11.00
2023-05-22T13:23:40.228Z,11.60
2023-05-22T13:26:06.956Z,12.20
2023-05-22T13:28:34.463Z,12.80
2023-05-22T13:31:01.505Z,12.10
2023-05-22T13:33:28.286Z,12.00
2023-05-22T13:35:55.236Z,12.40
2023-05-22T13:38:22.028Z,12.40
2023-05-22T13:40:49.059Z,11.90
2023-05-22T13:43:15.966Z,11.90
2023-05-22T13:45:42.837Z,11.90
2023-05-22T13:48:10.046Z,11.90
2023-05-22T13:50:36.820Z,11.80
2023-05-22T13:53:03.702Z,11.90
2023-05-22T13:55:30.546Z,12.00
2023-05-22T13:57:57.313Z,12.10
2023-05-22T14:00:24.681Z,12.10
2023-05-22T14:02:51.696Z,11.90
2023-05-22T14:05:18.780Z,12.20
2023-05-22T14:07:45.567Z,12.20
2023-05-22T14:10:12.675Z,10.80
2023-05-22T14:12:39.554Z,12.30
2023-05-22T14:15:06.997Z,12.40
2023-05-22T14:17:33.758Z,12.40
2023-05-22T14:20:00.579Z,12.50
2023-05-22T14:22:27.447Z,13.20
2023-05-22T14:24:54.233Z,12.30
2023-05-22T14:27:21.651Z,12.50
2023-05-22T14:29:48.463Z,11.70
2023-05-22T14:32:18.510Z,11.30
2023-05-22T14:34:45.587Z,10.80
2023-05-22T14:37:13.068Z,11.00
2023-05-22T14:39:39.839Z,10.30
2023-05-22T14:42:06.969Z,10.10
2023-05-22T14:44:33.997Z,9.90
2023-05-22T14:47:00.896Z,9.70
2023-05-22T14:49:27.700Z,10.50
2023-05-22T14:51:54.652Z,10.10
2023-05-22T14:54:23.638Z,8.60
2023-05-22T14:56:53.516Z,10.10
2023-05-22T14:59:20.959Z,9.30
2023-05-22T15:01:50.260Z,10.10
2023-05-22T15:04:18.465Z,11.60
2023-05-22T15:06:45.288Z,11.80
2023-05-22T15:09:12.101Z,11.70
2023-05-22T15:11:38.986Z,11.00
2023-05-22T15:14:06.036Z,12.20
2023-05-22T15:16:32.865Z,12.40
2023-05-22T15:18:59.821Z,12.50
2023-05-22T15:21:27.133Z,12.20
2023-05-22T15:23:57.206Z,12.80
2023-05-22T15:26:24.005Z,11.30
2023-05-22T15:28:51.272Z,11.10
2023-05-22T15:31:18.116Z,12.30
2023-05-22T15:33:50.792Z,12.60
2023-05-22T15:36:17.607Z,12.50
2023-05-22T15:38:44.645Z,11.90
2023-05-22T15:41:11.739Z,12.30
2023-05-22T15:43:38.474Z,13.40
2023-05-22T15:46:05.529Z,12.00
2023-05-22T15:48:32.624Z,13.20
2023-05-22T15:51:01.144Z,12.10
2023-05-22T15:53:27.928Z,12.80
2023-05-22T15:55:54.771Z,12.20
2023-05-22T15:58:21.553Z,11.40
2023-05-22T16:00:48.537Z,11.60
2023-05-22T16:03:16.931Z,11.40
2023-05-22T16:05:45.850Z,11.70
2023-05-22T16:08:14.101Z,11.80
2023-05-22T16:10:43.673Z,11.40
2023-05-22T16:13:10.751Z,11.50
2023-05-22T16:15:39.774Z,11.20
2023-05-22T16:18:07.465Z,11.40
2023-05-22T16:20:35.707Z,11.60
2023-05-22T16:23:02.997Z,11.10
2023-05-22T16:25:30.127Z,10.50
2023-05-22T16:27:57.247Z,11.00
2023-05-22T16:30:24.057Z,11.40
2023-05-22T16:32:50.961Z,10.70
2023-05-22T16:35:19.572Z,10.30
2023-05-22T16:37:46.486Z,10.50
2023-05-22T16:40:13.360Z,10.70
2023-05-22T16:42:40.150Z,10.50
2023-05-22T16:45:07.471Z,9.90
2023-05-22T16:47:34.279Z,10.30
2023-05-22T16:50:01.423Z,10.60
2023-05-22T16:52:28.488Z,10.40
2023-05-22T16:54:55.789Z,10.20
2023-05-22T16:57:22.735Z,10.80
2023-05-22T16:59:49.692Z,10.20
2023-05-22T17:02:17.189Z,10.90
2023-05-22T17:04:44.160Z,11.40
2023-05-22T17:07:11.482Z,10.70
2023-05-22T17:09:38.406Z,10.70
2023-05-22T17:12:05.760Z,11.00
2023-05-22T17:14:34.471Z,10.70
2023-05-22T17:17:01.261Z,11.30
2023-05-22T17:19:28.432Z,11.90
2023-05-22T17:21:56.619Z,11.90
2023-05-22T17:24:23.529Z,11.50
2023-05-22T17:26:50.259Z,11.60
2023-05-22T17:29:17.309Z,11.30
2023-05-22T17:31:44.139Z,12.40
2023-05-22T17:34:10.936Z,12.00
2023-05-22T17:36:38.076Z,11.80
2023-05-22T17:39:04.862Z,11.10
2023-05-22T17:41:32.153Z,11.20
2023-05-22T17:44:01.144Z,9.30
2023-05-22T17:46:28.393Z,8.90
2023-05-22T17:48:55.710Z,8.80
2023-05-22T17:51:22.742Z,7.50
2023-05-22T17:53:50.088Z,7.50
2023-05-22T17:56:17.164Z,7.80
2023-05-22T17:58:43.931Z,7.40
2023-05-22T18:01:11.323Z,6.50
2023-05-22T18:03:38.577Z,7.20
2023-05-22T18:06:06.224Z,7.50
2023-05-22T18:08:33.114Z,7.10
2023-05-22T18:11:00.021Z,7.10
2023-05-22T18:13:26.786Z,6.10
2023-05-22T18:15:54.351Z,7.00
2023-05-22T18:18:22.429Z,5.50
2023-05-22T18:20:49.435Z,4.70
2023-05-22T18:23:17.040Z,3.30
2023-05-22T18:25:44.066Z,2.60
2023-05-22T18:28:11.437Z,1.00
2023-05-22T18:30:38.746Z,1.80
2023-05-22T18:33:05.852Z,1.20
2023-05-22T18:35:32.803Z,1.00
2023-05-22T18:38:00.514Z,1.00
2023-05-22T18:40:27.715Z,1.00
2023-05-22T18:42:54.720Z,1.00
2023-05-22T18:45:21.558Z,1.00
2023-05-22T18:47:48.665Z,1.00
2023-05-22T18:50:15.466Z,1.00
2023-05-22T18:52:42.372Z,1.00
2023-05-22T18:55:09.818Z,1.00
2023-05-22T18:57:36.617Z,1.00
2023-05-22T19:00:03.748Z,1.00
2023-05-22T19:02:30.826Z,1.00
2023-05-22T19:05:01.163Z,1.00
2023-05-22T19:07:28.165Z,1.00
2023-05-22T19:09:54.932Z,1.00
2023-05-22T19:12:24.505Z,1.00
2023-05-22T19:14:52.487Z,1.00
2023-05-22T19:17:19.308Z,1.00
2023-05-22T19:19:46.633Z,1.00
2023-05-22T19:22:14.262Z,1.00
2023-05-22T19:24:42.275Z,1.00
2023-05-22T19:27:09.133Z,1.00
2023-05-22T19:29:36.111Z,1.00
2023-05-22T19:32:02.973Z,1.00
2023-05-22T19:34:29.837Z,1.00
2023-05-22T19:36:57.875Z,1.00
2023-05-22T19:39:24.900Z,1.00
2023-05-22T19:41:52.664Z,1.00
2023-05-22T19:44:19.484Z,1.00
2023-05-22T19:46:47.346Z,1.00
2023-05-22T19:49:14.369Z,1.00
2023-05-22T19:51:42.414Z,1.00
2023-05-22T19:54:09.349Z,1.00
2023-05-22T19:56:36.405Z,1.00
2023-05-22T19:59:03.177Z,1.00
2023-05-22T20:01:29.963Z,1.00
2023-05-22T20:03:56.934Z,1.00
2023-05-22T20:06:23.831Z,1.00
2023-05-22T20:08:50.690Z,1.00
2023-05-22T20:11:17.518Z,1.00
2023-05-22T20:13:44.300Z,1.00
2023-05-22T20:16:12.771Z,1.00
2023-05-22T20:18:41.023Z,1.00
2023-05-22T20:21:08.242Z,1.60
2023-05-22T20:23:35.063Z,1.40
2023-05-22T20:26:01.970Z,1.90
2023-05-22T20:28:28.866Z,2.10
2023-05-22T20:30:55.846Z,2.80
2023-05-22T20:33:23.132Z,3.20
2023-05-22T20:35:52.848Z,2.80
2023-05-22T20:38:20.279Z,3.20
2023-05-22T20:40:47.585Z,3.40
2023-05-22T20:43:15.082Z,3.40
2023-05-22T20:45:45.881Z,4.00
2023-05-22T20:48:13.490Z,4.00
2023-05-22T20:50:41.107Z,4.00
2023-05-22T20:53:08.498Z,3.90
2023-05-22T20:55:35.654Z,4.40
2023-05-22T20:58:02.575Z,5.00
2023-05-22T21:00:29.953Z,4.30
2023-05-22T21:02:58.411Z,5.30
2023-05-22T21:05:25.793Z,6.10
2023-05-22T21:07:52.548Z,6.20
2023-05-22T21:10:19.346Z,6.50
2023-05-22T21:12:46.113Z,6.90
2023-05-22T21:15:12.908Z,7.20
2023-05-22T21:17:39.955Z,6.70
2023-05-22T21:20:08.049Z,8.10
2023-05-22T21:22:41.361Z,8.20
2023-05-22T21:25:09.777Z,8.30
2023-05-22T21:27:36.927Z,8.00
2023-05-22T21:30:03.878Z,8.50
2023-05-22T21:32:30.699Z,8.50
2023-05-22T21:34:57.446Z,8.50
2023-05-22T21:37:24.508Z,8.40
2023-05-22T21:39:51.279Z,8.40
2023-05-22T21:42:18.457Z,9.40
2023-05-22T21:44:45.241Z,9.50
2023-05-22T21:47:12.007Z,9.10
2023-05-22T21:49:39.747Z,9.30
2023-05-22T21:52:06.886Z,9.80
2023-05-22T21:54:33.607Z,10.10
2023-05-22T21:57:00.634Z,10.50
2023-05-22T22:01:54.678Z,11.80
2023-05-22T22:04:21.509Z,11.20
2023-05-22T22:06:48.203Z,12.00
2023-05-22T22:09:15.001Z,11.60
2023-05-22T22:11:41.738Z,12.70
2023-05-22T22:14:08.478Z,14.50
2023-05-22T22:16:35.662Z,13.80
2023-05-22T22:19:03.087Z,14.60
2023-05-22T22:21:30.340Z,15.40
2023-05-22T22:23:57.394Z,15.90
2023-05-22T22:26:24.617Z,17.90
2023-05-22T22:28:51.430Z,17.90
2023-05-22T22:31:18.321Z,17.80
2023-05-22T22:33:45.514Z,20.00
2023-05-22T22:36:12.301Z,20.20
2023-05-22T22:38:39.048Z,22.20
2023-05-22T22:41:08.661Z,23.30
2023-05-22T23:27:53.135Z,24.50
2023-05-22T23:30:19.883Z,53.10
2023-05-22T23:32:47.550Z,56.00
2023-05-22T23:35:14.723Z,58.90
2023-05-22T23:37:42.083Z,58.70
2023-05-22T23:40:09.636Z,63.30
